Time,TemperatureF,DewpointF,PressureIn,WindDirection,WindDirectionDegrees,WindSpeedMPH,WindSpeedGustMPH,Humidity,HourlyPrecipIn,Conditions,Clouds,dailyrainin,SoftwareType,DateUTC
2013-02-02 00:01:00,33.2,18.8,30.15,ESE,118,3.5,3.5,55,0.00,-RA,OVC,0.00,WeatherDisplay:10.37,2013-02-02 07:01:00,
2013-02-02 00:06:00,32.9,18.5,30.15,East,93,3.5,3.5,55,0.00,-RA,OVC,0.00,WeatherDisplay:10.37,2013-02-02 07:06:00,
2013-02-02 00:11:00,32.8,18.4,30.15,East,92,3.5,3.5,55,0.00,-RA,OVC,0.00,WeatherDisplay:10.37,2013-02-02 07:11:00,
2013-02-02 00:16:00,32.8,18.4,30.15,East,96,2.3,2.3,55,0.00,-RA,OVC,0.00,WeatherDisplay:10.37,2013-02-02 07:16:00,
2013-02-02 00:21:00,32.7,18.3,30.15,East,88,4.0,4.0,55,0.00,-RA,OVC,0.00,WeatherDisplay:10.37,2013-02-02 07:21:00,
2013-02-02 00:26:00,32.4,18.4,30.15,East,81,3.5,3.5,56,0.00,-RA,OVC,0.00,WeatherDisplay:10.37,2013-02-02 07:26:00,
2013-02-02 00:31:00,32.0,18.5,30.15,East,81,3.5,3.5,57,0.00,-RA,OVC,0.00,WeatherDisplay:10.37,2013-02-02 07:31:00,
2013-02-02 00:36:00,31.5,18.4,30.15,East,81,2.3,2.3,58,0.00,-RA,OVC,0.00,WeatherDisplay:10.37,2013-02-02 07:36:00,
2013-02-02 00:41:00,31.2,18.5,30.15,East,80,2.3,2.3,59,0.00,-RA,OVC,0.00,WeatherDisplay:10.37,2013-02-02 07:41:00,
2013-02-02 00:46:00,31.1,18.0,30.15,NE,55,5.8,5.8,58,0.00,-RA,OVC,0.00,WeatherDisplay:10.37,2013-02-02 07:46:00,
2013-02-02 00:51:00,31.3,18.2,30.15,NE,47,3.5,3.5,58,0.00,-RA,OVC,0.00,WeatherDisplay:10.37,2013-02-02 07:51:00,
2013-02-02 00:56:00,31.8,17.9,30.16,NE,47,3.5,3.5,56,0.00,-RA,OVC,0.00,WeatherDisplay:10.37,2013-02-02 07:56:00,
2013-02-02 01:01:00,32.0,18.1,30.16,NE,47,0.0,0.0,56,0.00,-RA,OVC,0.00,WeatherDisplay:10.37,2013-02-02 08:01:00,
2013-02-02 01:06:00,31.9,18.0,30.16,NE,47,2.3,2.3,56,0.00,-RA,OVC,0.00,WeatherDisplay:10.37,2013-02-02 08:06:00,
2013-02-02 01:11:00,31.6,17.7,30.16,NE,47,0.0,0.0,56,0.00,-RA,OVC,0.00,WeatherDisplay:10.37,2013-02-02 08:11:00,
2013-02-02 01:16:00,31.3,17.8,30.16,NE,47,0.0,0.0,57,0.00,-RA,OVC,0.00,WeatherDisplay:10.37,2013-02-02 08:16:00,
2013-02-02 01:21:00,30.9,17.4,30.16,NE,47,2.3,2.3,57,0.00,-RA,OVC,0.00,WeatherDisplay:10.37,2013-02-02 08:21:00,
2013-02-02 01:26:00,30.6,17.6,30.17,NE,47,3.5,3.5,58,0.00,-RA,OVC,0.00,WeatherDisplay:10.37,2013-02-02 08:26:00,
2013-02-02 01:31:00,30.1,17.5,30.17,NE,47,2.3,2.3,59,0.00,-RA,OVC,0.00,WeatherDisplay:10.37,2013-02-02 08:31:00,
2013-02-02 01:36:00,29.6,17.4,30.17,NE,47,0.0,0.0,60,0.00,-RA,OVC,0.00,WeatherDisplay:10.37,2013-02-02 08:36:00,
2013-02-02 01:41:00,29.1,17.3,30.17,NE,47,0.0,0.0,61,0.00,-RA,OVC,0.00,WeatherDisplay:10.37,2013-02-02 08:41:00,
2013-02-02 01:46:00,28.7,17.7,30.17,NE,47,1.1,1.1,63,0.00,-RA,OVC,0.00,WeatherDisplay:10.37,2013-02-02 08:46:00,
2013-02-02 01:51:00,28.2,17.2,30.17,NE,47,0.0,0.0,63,0.00,-RA,OVC,0.00,WeatherDisplay:10.37,2013-02-02 08:51:00,
2013-02-02 01:56:00,28.0,17.4,30.17,NE,47,0.0,0.0,64,0.00,-RA,OVC,0.00,WeatherDisplay:10.37,2013-02-02 08:56:00,
2013-02-02 02:01:00,27.6,17.0,30.17,NE,47,2.3,2.3,64,0.00,-RA,OVC,0.00,WeatherDisplay:10.37,2013-02-02 09:01:00,
2013-02-02 02:06:00,27.3,17.1,30.17,NE,47,2.3,2.3,65,0.00,-RA,OVC,0.00,WeatherDisplay:10.37,2013-02-02 09:06:00,
2013-02-02 02:11:00,27.0,17.1,30.17,NE,47,0.0,0.0,66,0.00,-RA,OVC,0.00,WeatherDisplay:10.37,2013-02-02 09:11:00,
2013-02-02 02:16:00,26.8,17.0,30.17,NE,47,0.0,0.0,66,0.00,-RA,OVC,0.00,WeatherDisplay:10.37,2013-02-02 09:16:00,
2013-02-02 02:21:00,26.5,17.0,30.17,NE,47,0.0,0.0,67,0.00,-RA,OVC,0.00,WeatherDisplay:10.37,2013-02-02 09:21:00,
2013-02-02 02:26:00,26.2,17.1,30.17,NE,47,0.0,0.0,68,0.00,-RA,OVC,0.00,WeatherDisplay:10.37,2013-02-02 09:26:00,
2013-02-02 02:31:00,26.0,17.2,30.17,NE,47,1.1,1.1,69,0.00,-RA,OVC,0.00,WeatherDisplay:10.37,2013-02-02 09:31:00,
2013-02-02 02:36:00,25.8,17.0,30.17,NE,47,0.0,0.0,69,0.00,-RA,OVC,0.00,WeatherDisplay:10.37,2013-02-02 09:36:00,
2013-02-02 02:41:00,25.7,16.9,30.17,NE,47,0.0,0.0,69,0.00,-RA,OVC,0.00,WeatherDisplay:10.37,2013-02-02 09:41:00,
2013-02-02 02:46:00,25.7,16.9,30.17,NE,47,3.5,3.5,69,0.00,-RA,OVC,0.00,WeatherDisplay:10.37,2013-02-02 09:46:00,
2013-02-02 02:51:00,25.7,17.3,30.17,NE,47,0.0,0.0,70,0.00,-RA,OVC,0.00,WeatherDisplay:10.37,2013-02-02 09:51:00,
2013-02-02 02:56:00,25.7,17.3,30.17,NE,47,0.0,0.0,70,0.00,-RA,OVC,0.00,WeatherDisplay:10.37,2013-02-02 09:56:00,
2013-02-02 03:01:00,25.6,16.8,30.17,NE,47,2.3,2.3,69,0.00,-RA,OVC,0.00,WeatherDisplay:10.37,2013-02-02 10:01:00,
2013-02-02 03:06:00,25.4,17.0,30.17,NE,47,3.5,3.5,70,0.00,-RA,OVC,0.00,WeatherDisplay:10.37,2013-02-02 10:06:00,
2013-02-02 03:11:00,25.2,16.8,30.17,NE,47,3.5,3.5,70,0.00,-RA,OVC,0.00,WeatherDisplay:10.37,2013-02-02 10:11:00,
2013-02-02 03:16:00,25.0,16.9,30.19,NE,47,2.3,2.3,71,0.00,-RA,OVC,0.00,WeatherDisplay:10.37,2013-02-02 10:16:00,
2013-02-02 03:21:00,25.0,16.9,30.19,NE,47,0.0,0.0,71,0.00,-RA,OVC,0.00,WeatherDisplay:10.37,2013-02-02 10:21:00,
2013-02-02 03:26:00,25.1,17.0,30.19,NE,47,0.0,0.0,71,0.00,-RA,OVC,0.00,WeatherDisplay:10.37,2013-02-02 10:26:00,
2013-02-02 03:31:00,25.2,17.1,30.19,NE,47,3.5,3.5,71,0.00,-RA,OVC,0.00,WeatherDisplay:10.37,2013-02-02 10:31:00,
2013-02-02 03:36:00,25.3,16.9,30.19,NE,47,2.3,2.3,70,0.00,-RA,OVC,0.00,WeatherDisplay:10.37,2013-02-02 10:36:00,
2013-02-02 03:41:00,25.4,17.0,30.19,NE,47,2.3,2.3,70,0.00,-RA,OVC,0.00,WeatherDisplay:10.37,2013-02-02 10:41:00,
2013-02-02 03:46:00,25.6,16.8,30.19,NE,47,1.1,1.1,69,0.00,-RA,OVC,0.00,WeatherDisplay:10.37,2013-02-02 10:46:00,
2013-02-02 03:51:00,25.8,17.0,30.19,NE,47,2.3,2.3,69,0.00,-RA,OVC,0.00,WeatherDisplay:10.37,2013-02-02 10:51:00,
2013-02-02 03:56:00,26.1,17.0,30.19,NE,47,0.0,0.0,68,0.00,-RA,OVC,0.00,WeatherDisplay:10.37,2013-02-02 10:56:00,
2013-02-02 04:01:00,26.1,16.6,30.19,NE,47,0.0,0.0,67,0.00,-RA,OVC,0.00,WeatherDisplay:10.37,2013-02-02 11:01:00,
2013-02-02 04:06:00,25.7,16.6,30.19,NE,47,1.1,1.1,68,0.00,-RA,OVC,0.00,WeatherDisplay:10.37,2013-02-02 11:06:00,
2013-02-02 04:11:00,25.4,16.6,30.19,NE,47,0.0,0.0,69,0.00,-RA,OVC,0.00,WeatherDisplay:10.37,2013-02-02 11:11:00,
2013-02-02 04:16:00,25.2,16.8,30.19,NE,47,1.1,1.1,70,0.00,-RA,OVC,0.00,WeatherDisplay:10.37,2013-02-02 11:16:00,
2013-02-02 04:21:00,25.0,16.6,30.19,NE,47,0.0,0.0,70,0.00,-RA,OVC,0.00,WeatherDisplay:10.37,2013-02-02 11:21:00,
2013-02-02 04:26:00,24.8,18.6,30.19,NE,47,3.5,3.5,77,0.00,-RA,OVC,0.00,WeatherDisplay:10.37,2013-02-02 11:26:00,
2013-02-02 04:31:00,24.8,18.3,30.19,NE,47,3.5,3.5,76,0.00,-RA,OVC,0.00,WeatherDisplay:10.37,2013-02-02 11:31:00,
2013-02-02 04:36:00,24.9,16.5,30.19,NE,47,1.1,0.0,70,0.00,-RA,OVC,0.00,WeatherDisplay:10.37,2013-02-02 11:36:00,
2013-02-02 04:41:00,24.9,16.5,30.19,NE,47,0.0,0.0,70,0.00,-RA,OVC,0.00,WeatherDisplay:10.37,2013-02-02 11:41:00,
2013-02-02 04:46:00,24.9,16.5,30.19,NE,47,0.0,0.0,70,0.00,-RA,OVC,0.00,WeatherDisplay:10.37,2013-02-02 11:46:00,
2013-02-02 04:51:00,24.7,16.3,30.19,NE,47,2.3,2.3,70,0.00,-RA,OVC,0.00,WeatherDisplay:10.37,2013-02-02 11:51:00,
2013-02-02 04:56:00,24.7,16.6,30.19,NE,47,3.5,3.5,71,0.00,-RA,OVC,0.00,WeatherDisplay:10.37,2013-02-02 11:56:00,
2013-02-02 05:01:00,24.9,16.5,30.19,NE,47,3.5,3.5,70,0.00,-RA,OVC,0.00,WeatherDisplay:10.37,2013-02-02 12:01:00,
2013-02-02 05:06:00,25.2,16.1,30.19,NE,48,3.5,3.5,68,0.00,-RA,OVC,0.00,WeatherDisplay:10.37,2013-02-02 12:06:00,
2013-02-02 05:11:00,25.8,16.0,30.19,NE,50,4.6,4.6,66,0.00,-RA,OVC,0.00,WeatherDisplay:10.37,2013-02-02 12:11:00,
2013-02-02 05:16:00,26.3,16.1,30.19,ENE,61,3.5,3.5,65,0.00,-RA,OVC,0.00,WeatherDisplay:10.37,2013-02-02 12:16:00,
2013-02-02 05:21:00,26.5,16.0,30.19,ENE,61,3.5,3.5,64,0.00,-RA,OVC,0.00,WeatherDisplay:10.37,2013-02-02 12:21:00,
2013-02-02 05:26:00,26.5,16.0,30.19,ENE,61,1.1,1.1,64,0.00,-RA,OVC,0.00,WeatherDisplay:10.37,2013-02-02 12:26:00,
2013-02-02 05:31:00,26.6,15.7,30.19,ENE,61,0.0,0.0,63,0.00,-RA,OVC,0.00,WeatherDisplay:10.37,2013-02-02 12:31:00,
2013-02-02 05:36:00,26.4,15.5,30.19,ENE,61,1.1,1.1,63,0.00,-RA,OVC,0.00,WeatherDisplay:10.37,2013-02-02 12:36:00,
2013-02-02 05:41:00,25.9,15.4,30.19,ENE,61,0.0,0.0,64,0.00,-RA,OVC,0.00,WeatherDisplay:10.37,2013-02-02 12:41:00,
2013-02-02 05:46:00,25.4,15.3,30.19,ENE,61,0.0,0.0,65,0.00,-RA,OVC,0.00,WeatherDisplay:10.37,2013-02-02 12:46:00,
2013-02-02 05:51:00,25.2,15.4,30.19,ENE,61,0.0,0.0,66,0.00,-RA,OVC,0.00,WeatherDisplay:10.37,2013-02-02 12:51:00,
2013-02-02 05:56:00,24.8,15.0,30.19,ENE,61,0.0,0.0,66,0.00,-RA,OVC,0.00,WeatherDisplay:10.37,2013-02-02 12:56:00,
2013-02-02 06:01:00,24.6,14.9,30.19,ENE,61,0.0,0.0,66,0.00,-RA,OVC,0.00,WeatherDisplay:10.37,2013-02-02 13:01:00,
2013-02-02 06:06:00,24.6,14.9,30.19,ENE,61,0.0,0.0,66,0.00,-RA,OVC,0.00,WeatherDisplay:10.37,2013-02-02 13:06:00,
2013-02-02 06:11:00,24.3,14.6,30.19,ENE,61,2.3,2.3,66,0.00,-RA,OVC,0.00,WeatherDisplay:10.37,2013-02-02 13:11:00,
2013-02-02 06:16:00,24.2,14.8,30.19,ENE,61,3.5,0.0,67,0.00,-RA,OVC,0.00,WeatherDisplay:10.37,2013-02-02 13:16:00,
2013-02-02 06:21:00,24.0,14.6,30.19,ENE,61,0.0,0.0,67,0.00,-RA,OVC,0.00,WeatherDisplay:10.37,2013-02-02 13:21:00,
2013-02-02 06:26:00,23.7,14.7,30.19,ENE,61,0.0,0.0,68,0.00,-RA,OVC,0.00,WeatherDisplay:10.37,2013-02-02 13:26:00,
2013-02-02 06:31:00,23.3,14.6,30.19,ENE,61,0.0,0.0,69,0.00,-RA,OVC,0.00,WeatherDisplay:10.37,2013-02-02 13:31:00,
2013-02-02 06:36:00,23.1,14.4,30.19,ENE,61,0.0,0.0,69,0.00,-RA,OVC,0.00,WeatherDisplay:10.37,2013-02-02 13:36:00,
2013-02-02 06:41:00,22.7,14.4,30.19,ENE,61,0.0,0.0,70,0.00,-RA,OVC,0.00,WeatherDisplay:10.37,2013-02-02 13:41:00,
2013-02-02 06:46:00,22.4,14.1,30.19,ENE,61,0.0,0.0,70,0.00,-RA,OVC,0.00,WeatherDisplay:10.37,2013-02-02 13:46:00,
2013-02-02 06:51:00,22.1,14.1,30.19,ENE,61,0.0,0.0,71,0.00,-RA,OVC,0.00,WeatherDisplay:10.37,2013-02-02 13:51:00,
2013-02-02 06:56:00,21.9,13.9,30.19,ENE,61,1.1,0.0,71,0.00,-RA,OVC,0.00,WeatherDisplay:10.37,2013-02-02 13:56:00,
2013-02-02 07:01:00,21.8,14.2,30.19,ENE,61,0.0,0.0,72,0.00,-RA,OVC,0.00,WeatherDisplay:10.37,2013-02-02 14:01:00,
2013-02-02 07:06:00,21.7,14.1,30.19,ENE,61,0.0,0.0,72,0.00,-RA,OVC,0.00,WeatherDisplay:10.37,2013-02-02 14:06:00,
2013-02-02 07:11:00,21.5,13.9,30.19,ENE,61,0.0,0.4,72,0.00,-RA,OVC,0.00,WeatherDisplay:10.37,2013-02-02 14:11:00,
2013-02-02 07:16:00,21.3,14.0,30.19,ENE,61,0.0,0.0,73,0.00,-RA,OVC,0.00,WeatherDisplay:10.37,2013-02-02 14:16:00,
2013-02-02 07:21:00,21.4,14.1,30.19,ENE,61,0.0,0.0,73,0.00,-RA,OVC,0.00,WeatherDisplay:10.37,2013-02-02 14:21:00,
2013-02-02 07:26:00,21.5,14.2,30.19,ENE,61,0.0,0.0,73,0.00,-RA,OVC,0.00,WeatherDisplay:10.37,2013-02-02 14:26:00,
2013-02-02 07:31:00,21.7,14.4,30.19,ENE,61,1.1,1.1,73,0.00,-RA,OVC,0.00,WeatherDisplay:10.37,2013-02-02 14:31:00,
2013-02-02 07:36:00,22.0,14.3,30.20,ENE,61,0.0,0.0,72,0.00,-RA,OVC,0.00,WeatherDisplay:10.37,2013-02-02 14:36:00,
2013-02-02 07:41:00,22.5,14.8,30.20,ENE,61,0.0,0.0,72,0.00,-RA,OVC,0.00,WeatherDisplay:10.37,2013-02-02 14:41:00,
2013-02-02 07:46:00,22.9,14.9,30.20,ENE,61,0.0,0.0,71,0.00,-RA,OVC,0.00,WeatherDisplay:10.37,2013-02-02 14:46:00,
2013-02-02 07:51:00,23.6,15.2,30.20,ENE,61,1.1,0.0,70,0.00,-RA,OVC,0.00,WeatherDisplay:10.37,2013-02-02 14:51:00,
2013-02-02 07:56:00,24.4,15.3,30.20,ENE,61,0.0,0.0,68,0.00,-RA,OVC,0.00,WeatherDisplay:10.37,2013-02-02 14:56:00,
2013-02-02 08:01:00,25.0,15.6,30.20,ENE,61,0.0,0.0,67,0.00,-RA,OVC,0.00,WeatherDisplay:10.37,2013-02-02 15:01:00,
2013-02-02 08:06:00,25.9,15.7,30.20,ENE,61,0.0,0.0,65,0.00,-RA,OVC,0.00,WeatherDisplay:10.37,2013-02-02 15:06:00,
2013-02-02 08:11:00,26.7,15.8,30.20,ENE,61,0.0,0.0,63,0.00,-RA,OVC,0.00,WeatherDisplay:10.37,2013-02-02 15:11:00,
2013-02-02 08:16:00,27.4,15.7,30.20,ENE,61,1.1,1.1,61,0.00,-RA,OVC,0.00,WeatherDisplay:10.37,2013-02-02 15:16:00,
2013-02-02 08:21:00,28.2,15.7,30.20,ENE,61,3.5,3.5,59,0.00,-RA,OVC,0.00,WeatherDisplay:10.37,2013-02-02 15:21:00,
2013-02-02 08:26:00,29.0,15.7,30.20,ENE,61,0.0,0.0,57,0.00,-RA,OVC,0.00,WeatherDisplay:10.37,2013-02-02 15:26:00,
2013-02-02 08:31:00,29.9,15.7,30.20,ENE,61,1.1,0.0,55,0.00,-RA,OVC,0.00,WeatherDisplay:10.37,2013-02-02 15:31:00,
2013-02-02 08:36:00,30.7,15.1,30.20,ENE,61,3.5,3.5,52,0.00,-RA,OVC,0.00,WeatherDisplay:10.37,2013-02-02 15:36:00,
2013-02-02 08:41:00,31.3,16.1,30.20,ENE,59,3.0,3.0,53,0.00,-RA,OVC,0.00,WeatherDisplay:10.37,2013-02-02 15:41:00,
2013-02-02 08:46:00,31.8,15.3,30.20,ENE,58,3.5,3.5,50,0.00,-RA,OVC,0.00,WeatherDisplay:10.37,2013-02-02 15:46:00,
2013-02-02 08:51:00,32.3,15.7,30.20,NE,55,4.6,4.6,50,0.00,-RA,OVC,0.00,WeatherDisplay:10.37,2013-02-02 15:51:00,
2013-02-02 08:56:00,32.8,15.7,30.20,NE,49,3.5,3.5,49,0.00,-RA,OVC,0.00,WeatherDisplay:10.37,2013-02-02 15:56:00,
2013-02-02 09:01:00,33.6,15.5,30.20,NE,42,4.6,4.6,47,0.00,-RA,OVC,0.00,WeatherDisplay:10.37,2013-02-02 16:01:00,
2013-02-02 09:06:00,34.1,15.9,30.20,NE,41,4.6,4.6,47,0.00,-RA,OVC,0.00,WeatherDisplay:10.37,2013-02-02 16:06:00,
2013-02-02 09:11:00,34.7,16.5,30.20,NE,38,5.8,5.8,47,0.00,-RA,OVC,0.00,WeatherDisplay:10.37,2013-02-02 16:11:00,
2013-02-02 09:16:00,35.3,17.1,30.20,NE,36,3.5,3.5,47,0.00,-RA,OVC,0.00,WeatherDisplay:10.37,2013-02-02 16:16:00,
2013-02-02 09:21:00,35.8,17.0,30.20,NE,36,3.5,3.5,46,0.00,-RA,OVC,0.00,WeatherDisplay:10.37,2013-02-02 16:21:00,
2013-02-02 09:26:00,36.4,16.5,30.20,NE,34,4.6,4.6,44,0.00,-RA,OVC,0.00,WeatherDisplay:10.37,2013-02-02 16:26:00,
2013-02-02 09:31:00,37.1,17.2,30.20,NE,34,3.5,3.5,44,0.00,-RA,OVC,0.00,WeatherDisplay:10.37,2013-02-02 16:31:00,
2013-02-02 09:36:00,37.7,16.6,30.20,NNE,22,7.0,7.0,42,0.00,-RA,OVC,0.00,WeatherDisplay:10.37,2013-02-02 16:36:00,
2013-02-02 09:41:00,38.1,15.9,30.20,NE,34,6.9,6.9,40,0.00,-RA,OVC,0.00,WeatherDisplay:10.37,2013-02-02 16:41:00,
2013-02-02 09:46:00,38.7,15.8,30.20,NNE,29,5.8,5.8,39,0.00,-RA,OVC,0.00,WeatherDisplay:10.37,2013-02-02 16:46:00,
2013-02-02 09:51:00,39.3,17.0,30.20,NNE,28,4.6,4.6,40,0.00,-RA,OVC,0.00,WeatherDisplay:10.37,2013-02-02 16:51:00,
2013-02-02 09:56:00,39.9,16.3,30.21,NNE,26,4.6,4.6,38,0.00,-RA,OVC,0.00,WeatherDisplay:10.37,2013-02-02 16:56:00,
2013-02-02 10:01:00,40.5,16.2,30.21,NNE,24,3.5,3.5,37,0.00,-RA,OVC,0.00,WeatherDisplay:10.37,2013-02-02 17:01:00,
2013-02-02 10:06:00,41.3,16.9,30.21,NNE,30,6.9,6.9,37,0.00,-RA,OVC,0.00,WeatherDisplay:10.37,2013-02-02 17:06:00,
2013-02-02 10:11:00,41.7,16.7,30.21,NNE,26,4.6,4.6,36,0.00,-RA,OVC,0.00,WeatherDisplay:10.37,2013-02-02 17:11:00,
2013-02-02 10:16:00,42.0,16.9,30.21,North,9,10.4,10.4,36,0.00,-RA,OVC,0.00,WeatherDisplay:10.37,2013-02-02 17:16:00,
2013-02-02 10:21:00,42.5,16.7,30.21,North,5,6.0,6.0,35,0.00,-RA,OVC,0.00,WeatherDisplay:10.37,2013-02-02 17:21:00,
2013-02-02 10:26:00,42.9,17.1,30.21,NNE,26,6.9,6.9,35,0.00,-RA,OVC,0.00,WeatherDisplay:10.37,2013-02-02 17:26:00,
2013-02-02 10:31:00,43.5,16.9,30.21,NNE,26,5.8,5.8,34,0.00,-RA,OVC,0.00,WeatherDisplay:10.37,2013-02-02 17:31:00,
2013-02-02 10:36:00,44.0,16.7,30.21,NNE,18,5.8,5.8,33,0.00,-RA,OVC,0.00,WeatherDisplay:10.37,2013-02-02 17:36:00,
2013-02-02 10:41:00,44.5,17.1,30.21,NNE,19,4.6,4.6,33,0.00,-RA,OVC,0.00,WeatherDisplay:10.37,2013-02-02 17:41:00,
2013-02-02 10:46:00,45.0,16.9,30.21,NNE,17,5.8,5.8,32,0.00,-RA,OVC,0.00,WeatherDisplay:10.37,2013-02-02 17:46:00,
2013-02-02 10:51:00,45.7,16.7,30.21,NNE,17,3.5,3.5,31,0.00,-RA,OVC,0.00,WeatherDisplay:10.37,2013-02-02 17:51:00,
2013-02-02 10:56:00,46.5,15.9,30.21,NNE,17,5.8,5.8,29,0.00,-RA,OVC,0.00,WeatherDisplay:10.37,2013-02-02 17:56:00,
2013-02-02 11:01:00,47.1,16.4,30.21,NNE,16,8.1,8.1,29,0.00,-RA,OVC,0.00,WeatherDisplay:10.37,2013-02-02 18:01:00,
2013-02-02 11:06:00,47.6,16.1,30.21,North,5,4.6,4.6,28,0.00,-RA,OVC,0.00,WeatherDisplay:10.37,2013-02-02 18:06:00,
2013-02-02 11:11:00,47.9,15.5,30.21,NNE,24,5.8,5.8,27,0.00,-RA,OVC,0.00,WeatherDisplay:10.37,2013-02-02 18:11:00,
2013-02-02 11:16:00,48.3,15.8,30.20,NNE,23,3.5,3.5,27,0.00,-RA,OVC,0.00,WeatherDisplay:10.37,2013-02-02 18:16:00,
2013-02-02 11:21:00,48.8,15.4,30.20,NNE,23,3.5,3.5,26,0.00,-RA,OVC,0.00,WeatherDisplay:10.37,2013-02-02 18:21:00,
2013-02-02 11:26:00,49.5,16.0,30.19,NNE,24,3.5,3.5,26,0.00,-RA,OVC,0.00,WeatherDisplay:10.37,2013-02-02 18:26:00,
2013-02-02 11:31:00,49.9,16.3,30.19,NNE,24,4.6,4.6,26,0.00,-RA,OVC,0.00,WeatherDisplay:10.37,2013-02-02 18:31:00,
2013-02-02 11:36:00,50.5,15.9,30.19,NNE,24,4.6,4.6,25,0.00,-RA,OVC,0.00,WeatherDisplay:10.37,2013-02-02 18:36:00,
2013-02-02 11:41:00,51.1,16.4,30.19,NNE,24,3.5,3.6,25,0.00,-RA,OVC,0.00,WeatherDisplay:10.37,2013-02-02 18:41:00,
2013-02-02 11:46:00,51.7,16.0,30.19,NNE,27,3.5,3.8,24,0.00,-RA,OVC,0.00,WeatherDisplay:10.37,2013-02-02 18:46:00,
2013-02-02 11:51:00,52.1,15.4,30.19,NNE,25,5.8,5.8,23,0.00,-RA,OVC,0.00,WeatherDisplay:10.37,2013-02-02 18:51:00,
2013-02-02 11:56:00,52.4,16.6,30.19,NNE,25,3.5,3.5,24,0.00,-RA,OVC,0.00,WeatherDisplay:10.37,2013-02-02 18:56:00,
2013-02-02 12:01:00,52.9,16.1,30.19,NNE,26,4.6,4.6,23,0.00,-RA,OVC,0.00,WeatherDisplay:10.37,2013-02-02 19:01:00,
2013-02-02 12:06:00,53.1,15.2,30.19,NNW,344,8.1,8.1,22,0.00,-RA,OVC,0.00,WeatherDisplay:10.37,2013-02-02 19:06:00,
2013-02-02 12:11:00,53.5,14.5,30.19,North,355,2.3,2.3,21,0.00,-RA,OVC,0.00,WeatherDisplay:10.37,2013-02-02 19:11:00,
2013-02-02 12:16:00,54.2,11.5,30.19,NNW,338,9.2,9.2,18,0.00,-RA,OVC,0.00,WeatherDisplay:10.37,2013-02-02 19:16:00,
2013-02-02 12:21:00,54.8,14.4,30.19,ENE,58,3.5,3.5,20,0.00,-RA,OVC,0.00,WeatherDisplay:10.37,2013-02-02 19:21:00,
2013-02-02 12:26:00,55.7,11.5,30.19,NE,36,5.0,5.0,17,0.00,-RA,OVC,0.00,WeatherDisplay:10.37,2013-02-02 19:26:00,
2013-02-02 12:31:00,56.3,10.6,30.19,ENE,69,3.5,3.5,16,0.00,-RA,OVC,0.00,WeatherDisplay:10.37,2013-02-02 19:31:00,
2013-02-02 12:36:00,56.4,10.7,30.19,NE,54,5.8,0.0,16,0.00,-RA,OVC,0.00,WeatherDisplay:10.37,2013-02-02 19:36:00,
2013-02-02 12:41:00,56.5,9.3,30.19,NNE,14,4.6,4.6,15,0.00,-RA,OVC,0.00,WeatherDisplay:10.37,2013-02-02 19:41:00,
2013-02-02 12:46:00,56.9,9.6,30.19,NNE,19,1.1,1.1,15,0.00,-RA,OVC,0.00,WeatherDisplay:10.37,2013-02-02 19:46:00,
2013-02-02 12:51:00,57.0,11.2,30.19,NE,51,11.5,11.5,16,0.00,-RA,OVC,0.00,WeatherDisplay:10.37,2013-02-02 19:51:00,
2013-02-02 12:56:00,57.3,10.0,30.19,East,84,3.5,3.5,15,0.00,-RA,OVC,0.00,WeatherDisplay:10.37,2013-02-02 19:56:00,
2013-02-02 13:01:00,58.0,9.0,30.19,East,94,4.6,4.6,14,0.00,-RA,OVC,0.00,WeatherDisplay:10.37,2013-02-02 20:01:00,
2013-02-02 13:06:00,58.1,9.1,30.19,SE,132,10.4,10.4,14,0.00,-RA,OVC,0.00,WeatherDisplay:10.37,2013-02-02 20:06:00,
2013-02-02 13:11:00,58.0,5.6,30.19,SSW,207,14.0,14.0,12,0.00,-RA,OVC,0.00,WeatherDisplay:10.37,2013-02-02 20:11:00,
2013-02-02 13:16:00,57.8,5.4,30.19,SE,146,18.4,18.4,12,0.00,-RA,OVC,0.00,WeatherDisplay:10.37,2013-02-02 20:16:00,
2013-02-02 13:21:00,57.9,7.3,30.19,SSE,165,17.3,17.3,13,0.00,-RA,OVC,0.00,WeatherDisplay:10.37,2013-02-02 20:21:00,
2013-02-02 13:26:00,58.2,5.7,30.16,South,174,11.5,11.5,12,0.00,-RA,OVC,0.00,WeatherDisplay:10.37,2013-02-02 20:26:00,
2013-02-02 13:31:00,58.1,5.7,30.16,South,186,17.0,17.0,12,0.00,-RA,OVC,0.00,WeatherDisplay:10.37,2013-02-02 20:31:00,
2013-02-02 13:36:00,57.8,5.4,30.16,SSE,162,10.4,10.4,12,0.00,-RA,OVC,0.00,WeatherDisplay:10.37,2013-02-02 20:36:00,
2013-02-02 13:41:00,57.9,5.5,30.16,SSW,192,11.5,11.5,12,0.00,-RA,OVC,0.00,WeatherDisplay:10.37,2013-02-02 20:41:00,
2013-02-02 13:46:00,58.2,5.7,30.16,SSE,162,11.5,11.5,12,0.00,-RA,OVC,0.00,WeatherDisplay:10.37,2013-02-02 20:46:00,
2013-02-02 13:51:00,58.1,5.7,30.16,SE,130,11.5,11.5,12,0.00,-RA,OVC,0.00,WeatherDisplay:10.37,2013-02-02 20:51:00,
2013-02-02 13:56:00,58.0,3.7,30.16,South,184,13.8,13.8,11,0.00,-RA,OVC,0.00,WeatherDisplay:10.37,2013-02-02 20:56:00,
2013-02-02 14:01:00,57.9,5.5,30.16,ESE,121,19.6,19.6,12,0.00,-RA,OVC,0.00,WeatherDisplay:10.37,2013-02-02 21:01:00,
2013-02-02 14:06:00,57.7,7.1,30.16,ESE,109,15.0,15.0,13,0.00,-RA,OVC,0.00,WeatherDisplay:10.37,2013-02-02 21:06:00,
2013-02-02 14:11:00,57.5,6.9,30.16,SSE,160,9.2,9.2,13,0.00,-RA,OVC,0.00,WeatherDisplay:10.37,2013-02-02 21:11:00,
2013-02-02 14:16:00,57.1,6.6,30.16,SSE,150,6.9,6.9,13,0.00,-RA,OVC,0.00,WeatherDisplay:10.37,2013-02-02 21:16:00,
2013-02-02 14:21:00,57.1,6.6,30.16,SE,145,11.5,11.5,13,0.00,-RA,OVC,0.00,WeatherDisplay:10.37,2013-02-02 21:21:00,
2013-02-02 14:26:00,56.8,6.4,30.16,SE,127,9.2,9.2,13,0.00,-RA,OVC,0.00,WeatherDisplay:10.37,2013-02-02 21:26:00,
2013-02-02 14:31:00,56.6,6.2,30.16,SSE,158,12.7,12.7,13,0.00,-RA,OVC,0.00,WeatherDisplay:10.37,2013-02-02 21:31:00,
2013-02-02 14:36:00,56.3,7.6,30.16,SE,126,16.1,16.1,14,0.00,-RA,OVC,0.00,WeatherDisplay:10.37,2013-02-02 21:36:00,
2013-02-02 14:41:00,56.2,7.5,30.16,SSE,157,9.2,9.2,14,0.00,-RA,OVC,0.00,WeatherDisplay:10.37,2013-02-02 21:41:00,
2013-02-02 14:46:00,56.1,7.5,30.16,SSE,167,10.4,10.4,14,0.00,-RA,OVC,0.00,WeatherDisplay:10.37,2013-02-02 21:46:00,
2013-02-02 14:51:00,55.8,7.2,30.16,SSE,165,16.1,16.1,14,0.00,-RA,OVC,0.00,WeatherDisplay:10.37,2013-02-02 21:51:00,
2013-02-02 14:56:00,55.6,8.6,30.17,SSW,192,5.8,5.8,15,0.00,-RA,OVC,0.00,WeatherDisplay:10.37,2013-02-02 21:56:00,
2013-02-02 15:01:00,55.5,8.5,30.17,SSW,193,10.4,10.4,15,0.00,-RA,OVC,0.00,WeatherDisplay:10.37,2013-02-02 22:01:00,
2013-02-02 15:06:00,55.5,8.5,30.17,South,174,12.7,12.7,15,0.00,-RA,OVC,0.00,WeatherDisplay:10.37,2013-02-02 22:06:00,
2013-02-02 15:11:00,55.7,7.1,30.17,South,190,12.7,12.7,14,0.00,-RA,OVC,0.00,WeatherDisplay:10.37,2013-02-02 22:11:00,
2013-02-02 15:16:00,55.7,8.7,30.17,SSW,198,9.2,9.2,15,0.00,-RA,OVC,0.00,WeatherDisplay:10.37,2013-02-02 22:16:00,
2013-02-02 15:21:00,55.3,8.4,30.17,South,180,11.5,11.5,15,0.00,-RA,OVC,0.00,WeatherDisplay:10.37,2013-02-02 22:21:00,
2013-02-02 15:26:00,55.1,8.2,30.17,South,189,8.1,8.1,15,0.00,-RA,OVC,0.00,WeatherDisplay:10.37,2013-02-02 22:26:00,
2013-02-02 15:31:00,55.1,8.2,30.17,SSW,193,11.5,11.5,15,0.00,-RA,OVC,0.00,WeatherDisplay:10.37,2013-02-02 22:31:00,
2013-02-02 15:36:00,55.0,6.6,30.17,SSE,159,11.5,11.5,14,0.00,-RA,OVC,0.00,WeatherDisplay:10.37,2013-02-02 22:36:00,
2013-02-02 15:41:00,55.0,6.6,30.17,SSW,192,12.7,12.7,14,0.00,-RA,OVC,0.00,WeatherDisplay:10.37,2013-02-02 22:41:00,
2013-02-02 15:46:00,55.0,6.6,30.17,SE,142,11.5,11.5,14,0.00,-RA,OVC,0.00,WeatherDisplay:10.37,2013-02-02 22:46:00,
2013-02-02 15:51:00,54.9,6.5,30.17,South,176,8.1,8.1,14,0.00,-RA,OVC,0.00,WeatherDisplay:10.37,2013-02-02 22:51:00,
2013-02-02 15:56:00,54.7,6.3,30.17,SSE,157,10.4,10.4,14,0.00,-RA,OVC,0.00,WeatherDisplay:10.37,2013-02-02 22:56:00,
2013-02-02 16:01:00,54.4,6.1,30.17,South,188,3.5,3.5,14,0.00,-RA,OVC,0.00,WeatherDisplay:10.37,2013-02-02 23:01:00,
2013-02-02 16:06:00,54.1,7.4,30.17,South,184,6.9,6.9,15,0.00,-RA,OVC,0.00,WeatherDisplay:10.37,2013-02-02 23:06:00,
2013-02-02 16:11:00,53.9,7.2,30.17,South,182,3.5,3.5,15,0.00,-RA,OVC,0.00,WeatherDisplay:10.37,2013-02-02 23:11:00,
2013-02-02 16:16:00,53.6,7.0,30.18,South,178,3.5,3.5,15,0.00,-RA,OVC,0.00,WeatherDisplay:10.37,2013-02-02 23:16:00,
2013-02-02 16:21:00,53.4,8.3,30.18,South,182,3.5,3.5,16,0.00,-RA,OVC,0.00,WeatherDisplay:10.37,2013-02-02 23:21:00,
2013-02-02 16:26:00,53.2,8.1,30.18,South,182,0.0,0.7,16,0.00,-RA,OVC,0.00,WeatherDisplay:10.37,2013-02-02 23:26:00,
2013-02-02 16:31:00,53.0,7.9,30.18,South,184,3.5,3.5,16,0.00,-RA,OVC,0.00,WeatherDisplay:10.37,2013-02-02 23:31:00,
2013-02-02 16:36:00,52.8,7.8,30.18,South,186,4.0,4.0,16,0.00,-RA,OVC,0.00,WeatherDisplay:10.37,2013-02-02 23:36:00,
2013-02-02 16:41:00,52.8,9.1,30.18,South,186,2.3,2.3,17,0.00,-RA,OVC,0.00,WeatherDisplay:10.37,2013-02-02 23:41:00,
2013-02-02 16:46:00,52.7,9.0,30.18,South,186,2.3,2.3,17,0.00,-RA,OVC,0.00,WeatherDisplay:10.37,2013-02-02 23:46:00,
2013-02-02 16:51:00,52.6,8.9,30.18,South,189,3.5,3.5,17,0.00,-RA,OVC,0.00,WeatherDisplay:10.37,2013-02-02 23:51:00,
2013-02-02 16:56:00,52.2,14.4,30.18,SW,236,4.6,4.6,22,0.00,-RA,OVC,0.00,WeatherDisplay:10.37,2013-02-02 23:56:00,
2013-02-02 17:01:00,51.6,15.9,30.18,West,271,5.8,5.8,24,0.00,-RA,OVC,0.00,WeatherDisplay:10.37,2013-02-03 00:01:00,
2013-02-02 17:06:00,50.8,17.1,30.18,WSW,240,8.1,8.1,26,0.00,-RA,OVC,0.00,WeatherDisplay:10.37,2013-02-03 00:06:00,
2013-02-02 17:11:00,50.1,18.2,30.18,WSW,250,4.6,4.6,28,0.00,-RA,OVC,0.00,WeatherDisplay:10.37,2013-02-03 00:11:00,
2013-02-02 17:16:00,49.5,17.7,30.18,WSW,250,5.0,5.0,28,0.00,-RA,OVC,0.00,WeatherDisplay:10.37,2013-02-03 00:16:00,
2013-02-02 17:21:00,49.1,18.2,30.18,WSW,250,2.3,2.3,29,0.00,-RA,OVC,0.00,WeatherDisplay:10.37,2013-02-03 00:21:00,
2013-02-02 17:26:00,48.6,17.7,30.18,WSW,250,1.1,1.1,29,0.00,-RA,OVC,0.00,WeatherDisplay:10.37,2013-02-03 00:26:00,
2013-02-02 17:31:00,48.2,18.2,30.18,WSW,251,3.5,3.5,30,0.00,-RA,OVC,0.00,WeatherDisplay:10.37,2013-02-03 00:31:00,
2013-02-02 17:36:00,47.7,18.5,30.18,WSW,253,3.5,3.5,31,0.00,-RA,OVC,0.00,WeatherDisplay:10.37,2013-02-03 00:36:00,
2013-02-02 17:41:00,47.4,19.0,30.18,West,263,3.5,3.5,32,0.00,-RA,OVC,0.00,WeatherDisplay:10.37,2013-02-03 00:41:00,
2013-02-02 17:46:00,47.0,19.3,30.22,West,263,0.0,0.1,33,0.00,-RA,OVC,0.00,WeatherDisplay:10.37,2013-02-03 00:46:00,
2013-02-02 17:51:00,46.5,18.9,30.22,West,263,2.3,2.3,33,0.00,-RA,OVC,0.00,WeatherDisplay:10.37,2013-02-03 00:51:00,
2013-02-02 17:56:00,45.9,19.1,30.22,West,263,1.1,1.1,34,0.00,-RA,OVC,0.00,WeatherDisplay:10.37,2013-02-03 00:56:00,
2013-02-02 18:01:00,45.2,19.1,30.22,West,263,0.0,0.0,35,0.00,-RA,OVC,0.00,WeatherDisplay:10.37,2013-02-03 01:01:00,
2013-02-02 18:06:00,44.7,19.3,30.22,West,263,1.1,1.1,36,0.00,-RA,OVC,0.00,WeatherDisplay:10.37,2013-02-03 01:06:00,
2013-02-02 18:11:00,44.3,19.0,30.22,West,263,0.0,0.0,36,0.00,-RA,OVC,0.00,WeatherDisplay:10.37,2013-02-03 01:11:00,
2013-02-02 18:16:00,43.8,19.2,30.22,West,263,1.1,0.0,37,0.00,-RA,OVC,0.00,WeatherDisplay:10.37,2013-02-03 01:16:00,
2013-02-02 18:21:00,43.2,18.6,30.22,West,263,0.0,0.0,37,0.00,-RA,OVC,0.00,WeatherDisplay:10.37,2013-02-03 01:21:00,
2013-02-02 18:26:00,42.4,19.2,30.22,West,263,0.0,0.0,39,0.00,-RA,OVC,0.00,WeatherDisplay:10.37,2013-02-03 01:26:00,
2013-02-02 18:31:00,41.7,18.5,30.22,West,263,0.0,0.0,39,0.00,-RA,OVC,0.00,WeatherDisplay:10.37,2013-02-03 01:31:00,
2013-02-02 18:36:00,41.2,18.7,30.22,West,263,0.0,0.0,40,0.00,-RA,OVC,0.00,WeatherDisplay:10.37,2013-02-03 01:36:00,
2013-02-02 18:41:00,40.5,19.2,30.22,West,263,0.0,0.0,42,0.00,-RA,OVC,0.00,WeatherDisplay:10.37,2013-02-03 01:41:00,
2013-02-02 18:46:00,39.8,19.1,30.22,West,263,0.0,0.0,43,0.00,-RA,OVC,0.00,WeatherDisplay:10.37,2013-02-03 01:46:00,
2013-02-02 18:51:00,39.1,19.0,30.22,West,263,2.3,2.3,44,0.00,-RA,OVC,0.00,WeatherDisplay:10.37,2013-02-03 01:51:00,
2013-02-02 18:56:00,38.8,19.2,30.22,West,263,0.0,0.0,45,0.00,-RA,OVC,0.00,WeatherDisplay:10.37,2013-02-03 01:56:00,
2013-02-02 19:01:00,38.5,19.5,30.22,West,263,0.0,0.0,46,0.00,-RA,OVC,0.00,WeatherDisplay:10.37,2013-02-03 02:01:00,
2013-02-02 19:06:00,38.1,19.1,30.22,West,263,0.0,0.0,46,0.00,-RA,OVC,0.00,WeatherDisplay:10.37,2013-02-03 02:06:00,
2013-02-02 19:11:00,38.0,19.0,30.22,West,263,0.0,0.0,46,0.00,-RA,OVC,0.00,WeatherDisplay:10.37,2013-02-03 02:11:00,
2013-02-02 19:16:00,37.9,18.9,30.22,West,263,0.0,0.0,46,0.00,-RA,OVC,0.00,WeatherDisplay:10.37,2013-02-03 02:16:00,
2013-02-02 19:21:00,37.7,19.3,30.22,West,263,0.0,0.1,47,0.00,-RA,OVC,0.00,WeatherDisplay:10.37,2013-02-03 02:21:00,
2013-02-02 19:26:00,37.3,18.9,30.22,West,263,0.0,0.0,47,0.00,-RA,OVC,0.00,WeatherDisplay:10.37,2013-02-03 02:26:00,
2013-02-02 19:31:00,37.2,18.8,30.22,West,263,0.0,0.0,47,0.00,-RA,OVC,0.00,WeatherDisplay:10.37,2013-02-03 02:31:00,
2013-02-02 19:36:00,37.2,18.8,30.22,West,263,0.0,0.2,47,0.00,-RA,OVC,0.00,WeatherDisplay:10.37,2013-02-03 02:36:00,
2013-02-02 19:41:00,37.3,17.9,30.22,West,263,0.0,0.0,45,0.00,-RA,OVC,0.00,WeatherDisplay:10.37,2013-02-03 02:41:00,
2013-02-02 19:46:00,37.5,18.1,30.22,West,263,0.0,0.0,45,0.00,-RA,OVC,0.00,WeatherDisplay:10.37,2013-02-03 02:46:00,
2013-02-02 19:51:00,37.5,17.5,30.22,West,263,0.0,0.0,44,0.00,-RA,OVC,0.00,WeatherDisplay:10.37,2013-02-03 02:51:00,
2013-02-02 19:56:00,37.5,18.1,30.22,West,263,0.0,0.0,45,0.00,-RA,OVC,0.00,WeatherDisplay:10.37,2013-02-03 02:56:00,
2013-02-02 20:01:00,37.4,17.4,30.22,West,265,3.5,3.5,44,0.00,-RA,OVC,0.00,WeatherDisplay:10.37,2013-02-03 03:01:00,
2013-02-02 20:06:00,37.6,16.5,30.22,West,265,3.5,3.5,42,0.00,-RA,OVC,0.00,WeatherDisplay:10.37,2013-02-03 03:06:00,
2013-02-02 20:11:00,37.9,16.8,30.22,West,265,2.3,2.3,42,0.00,-RA,OVC,0.00,WeatherDisplay:10.37,2013-02-03 03:11:00,
2013-02-02 20:16:00,38.1,16.4,30.22,West,265,0.0,0.0,41,0.00,-RA,OVC,0.00,WeatherDisplay:10.37,2013-02-03 03:16:00,
2013-02-02 20:21:00,38.2,16.5,30.22,West,265,1.1,0.0,41,0.00,-RA,OVC,0.00,WeatherDisplay:10.37,2013-02-03 03:21:00,
2013-02-02 20:26:00,38.3,16.1,30.22,West,265,1.1,0.0,40,0.00,-RA,OVC,0.00,WeatherDisplay:10.37,2013-02-03 03:26:00,
2013-02-02 20:31:00,38.3,16.6,30.22,West,265,0.0,0.0,41,0.00,-RA,OVC,0.00,WeatherDisplay:10.37,2013-02-03 03:31:00,
2013-02-02 20:36:00,38.2,16.5,30.22,West,265,0.0,0.0,41,0.00,-RA,OVC,0.00,WeatherDisplay:10.37,2013-02-03 03:36:00,
2013-02-02 20:41:00,38.0,16.4,30.22,West,265,0.0,0.0,41,0.00,-RA,OVC,0.00,WeatherDisplay:10.37,2013-02-03 03:41:00,
2013-02-02 20:46:00,37.4,16.9,30.22,West,265,0.0,0.0,43,0.00,-RA,OVC,0.00,WeatherDisplay:10.37,2013-02-03 03:46:00,
2013-02-02 20:51:00,36.9,17.0,30.22,West,265,0.0,0.0,44,0.00,-RA,OVC,0.00,WeatherDisplay:10.37,2013-02-03 03:51:00,
2013-02-02 20:56:00,36.5,16.6,30.22,West,265,0.0,0.0,44,0.00,-RA,OVC,0.00,WeatherDisplay:10.37,2013-02-03 03:56:00,
2013-02-02 21:01:00,36.0,16.7,30.22,West,265,0.0,0.0,45,0.00,-RA,OVC,0.00,WeatherDisplay:10.37,2013-02-03 04:01:00,
2013-02-02 21:06:00,35.7,16.9,30.22,West,265,0.0,0.0,46,0.00,-RA,OVC,0.00,WeatherDisplay:10.37,2013-02-03 04:06:00,
2013-02-02 21:11:00,35.2,17.0,30.22,West,265,0.0,0.0,47,0.00,-RA,OVC,0.00,WeatherDisplay:10.37,2013-02-03 04:11:00,
2013-02-02 21:16:00,34.8,17.1,30.22,West,265,0.0,0.0,48,0.00,-RA,OVC,0.00,WeatherDisplay:10.37,2013-02-03 04:16:00,
2013-02-02 21:21:00,34.4,16.7,30.22,West,265,1.1,0.0,48,0.00,-RA,OVC,0.00,WeatherDisplay:10.37,2013-02-03 04:21:00,
2013-02-02 21:26:00,34.1,16.9,30.25,West,265,0.0,0.0,49,0.00,-RA,OVC,0.00,WeatherDisplay:10.37,2013-02-03 04:26:00,
2013-02-02 21:31:00,33.9,16.7,30.25,West,265,0.0,0.0,49,0.00,-RA,OVC,0.00,WeatherDisplay:10.37,2013-02-03 04:31:00,
2013-02-02 21:36:00,33.6,16.9,30.25,West,265,0.0,0.0,50,0.00,-RA,OVC,0.00,WeatherDisplay:10.37,2013-02-03 04:36:00,
2013-02-02 21:41:00,33.4,16.7,30.25,West,265,0.0,0.0,50,0.00,-RA,OVC,0.00,WeatherDisplay:10.37,2013-02-03 04:41:00,
2013-02-02 21:46:00,33.2,16.5,30.25,West,265,0.0,0.0,50,0.00,-RA,OVC,0.00,WeatherDisplay:10.37,2013-02-03 04:46:00,
2013-02-02 21:51:00,32.9,16.7,30.25,West,265,0.0,0.0,51,0.00,-RA,OVC,0.00,WeatherDisplay:10.37,2013-02-03 04:51:00,
2013-02-02 21:56:00,32.6,16.4,30.25,West,265,0.0,0.0,51,0.00,-RA,OVC,0.00,WeatherDisplay:10.37,2013-02-03 04:56:00,
2013-02-02 22:00:00,32.4,17.2,30.25,West,265,0.0,0.0,53,0.00,-RA,OVC,0.00,WeatherDisplay:10.37,2013-02-03 05:00:00,
2013-02-02 22:02:00,32.2,17.0,30.25,West,265,0.0,0.0,53,0.00,-RA,OVC,0.00,WeatherDisplay:10.37,2013-02-03 05:02:00,
2013-02-02 22:03:00,32.1,16.9,30.25,West,265,0.0,0.0,53,0.00,-RA,OVC,0.00,WeatherDisplay:10.37,2013-02-03 05:03:00,
2013-02-02 22:08:00,31.8,16.6,30.23,West,265,0.0,0.0,53,0.00,-RA,OVC,0.00,WeatherDisplay:10.37,2013-02-03 05:08:00,
2013-02-02 22:13:00,31.5,16.7,30.23,West,265,0.0,0.0,54,0.00,-RA,OVC,0.00,WeatherDisplay:10.37,2013-02-03 05:13:00,
2013-02-02 22:18:00,31.2,16.5,30.23,West,265,0.0,0.0,54,0.00,-RA,OVC,0.00,WeatherDisplay:10.37,2013-02-03 05:18:00,
2013-02-02 22:23:00,30.9,16.6,30.23,West,265,0.0,0.0,55,0.00,-RA,OVC,0.00,WeatherDisplay:10.37,2013-02-03 05:23:00,
2013-02-02 22:28:00,30.7,16.8,30.23,West,265,0.0,0.0,56,0.00,-RA,OVC,0.00,WeatherDisplay:10.37,2013-02-03 05:28:00,
2013-02-02 22:33:00,30.5,16.7,30.23,West,265,0.0,0.0,56,0.00,-RA,OVC,0.00,WeatherDisplay:10.37,2013-02-03 05:33:00,
2013-02-02 22:38:00,30.3,16.9,30.23,West,265,0.0,0.0,57,0.00,-RA,OVC,0.00,WeatherDisplay:10.37,2013-02-03 05:38:00,
2013-02-02 22:43:00,30.1,16.7,30.23,West,265,0.0,0.0,57,0.00,-RA,OVC,0.00,WeatherDisplay:10.37,2013-02-03 05:43:00,
2013-02-02 22:48:00,29.9,16.5,30.23,West,265,0.0,0.0,57,0.00,-RA,OVC,0.00,WeatherDisplay:10.37,2013-02-03 05:48:00,
2013-02-02 22:53:00,29.9,16.5,30.23,West,265,0.0,0.0,57,0.00,-RA,OVC,0.00,WeatherDisplay:10.37,2013-02-03 05:53:00,
2013-02-02 22:58:00,29.8,16.4,30.23,West,265,0.0,0.0,57,0.00,-RA,OVC,0.00,WeatherDisplay:10.37,2013-02-03 05:58:00,
2013-02-02 23:03:00,29.9,16.5,30.23,West,265,0.0,0.0,57,0.00,-RA,OVC,0.00,WeatherDisplay:10.37,2013-02-03 06:03:00,
2013-02-02 23:08:00,29.9,16.5,30.23,West,265,0.0,0.0,57,0.00,-RA,OVC,0.00,WeatherDisplay:10.37,2013-02-03 06:08:00,
2013-02-02 23:13:00,29.9,16.5,30.23,West,265,0.0,0.0,57,0.00,-RA,OVC,0.00,WeatherDisplay:10.37,2013-02-03 06:13:00,
2013-02-02 23:18:00,29.7,16.3,30.23,West,265,0.0,0.0,57,0.00,-RA,OVC,0.00,WeatherDisplay:10.37,2013-02-03 06:18:00,
2013-02-02 23:23:00,29.4,16.4,30.23,West,265,0.0,0.0,58,0.00,-RA,OVC,0.00,WeatherDisplay:10.37,2013-02-03 06:23:00,
2013-02-02 23:28:00,29.3,16.3,30.23,West,265,0.0,0.0,58,0.00,-RA,OVC,0.00,WeatherDisplay:10.37,2013-02-03 06:28:00,
2013-02-02 23:33:00,29.1,16.1,30.23,West,265,0.0,0.0,58,0.00,-RA,OVC,0.00,WeatherDisplay:10.37,2013-02-03 06:33:00,
2013-02-02 23:38:00,29.2,16.2,30.23,West,265,2.3,2.3,58,0.00,-RA,OVC,0.00,WeatherDisplay:10.37,2013-02-03 06:38:00,
2013-02-02 23:43:00,29.1,16.1,30.23,West,265,1.1,0.0,58,0.00,-RA,OVC,0.00,WeatherDisplay:10.37,2013-02-03 06:43:00,
2013-02-02 23:48:00,29.0,15.7,30.23,West,265,0.0,0.0,57,0.00,-RA,OVC,0.00,WeatherDisplay:10.37,2013-02-03 06:48:00,
2013-02-02 23:53:00,29.2,15.8,30.23,West,265,1.1,0.0,57,0.00,-RA,OVC,0.00,WeatherDisplay:10.37,2013-02-03 06:53:00,
2013-02-02 23:58:00,29.3,15.9,30.23,West,265,2.3,2.3,57,0.00,-RA,OVC,0.00,WeatherDisplay:10.37,2013-02-03 06:58:00,